Time;durP1;ratioP1;P1;durP2;ratioP2;P2;SDS_P1;SDS_P2;PMS_P1;PMS_P2;Temp;Humidity;BMP_temperature;BMP_pressure;BME280_temperature;BME280_humidity;BME280_pressure;Samples;Min_cycle;Max_cycle;Signal;HPM_P1;HPM_P2
2024/02/16 00:00:11;;;;;;;;;;;;;;;-4.60;100.00;101612.48;109336;1252;72800;-55
2024/02/16 00:10:10;;;;;;;;;;;;;;;-4.66;100.00;101626.06;109504;1251;75543;-55
2024/02/16 00:12:39;;;;;;;;;;;;;;;-4.67;100.00;101618.96;109464;1251;65650;-55
2024/02/16 00:15:07;;;;;;;;;;;;;;;-4.68;100.00;101617.84;109483;1252;72662;-54
2024/02/16 00:17:37;;;;;;;;;;;;;;;-4.70;100.00;101627.54;109403;1251;59721;-55
2024/02/16 00:20:07;;;;;;;;;;;;;;;-4.71;100.00;101627.77;109461;1251;59745;-55
2024/02/16 00:22:35;;;;;;;;;;;;;;;-4.71;100.00;101626.57;109434;1253;74355;-55
2024/02/16 00:25:03;;;;;;;;;;;;;;;-4.70;100.00;101628.41;109517;1251;67164;-55
2024/02/16 00:27:31;;;;;;;;;;;;;;;-4.72;100.00;101625.92;109470;1251;71372;-61
2024/02/16 00:29:59;;;;;;;;;;;;;;;-4.72;100.00;101624.75;109480;1251;59968;-57
2024/02/16 00:32:30;;;;;;;;;;;;;;;-4.73;100.00;101620.89;109494;1251;59806;-57
2024/02/16 00:34:58;;;;;;;;;;;;;;;-4.74;100.00;101624.96;109493;1251;75465;-57
2024/02/16 00:37:25;;;;;;;;;;;;;;;-4.74;100.00;101624.81;109449;1251;67042;-62
2024/02/16 00:39:54;;;;;;;;;;;;;;;-4.76;100.00;101621.98;109434;1252;72228;-55
2024/02/16 00:42:26;;;;;;;;;;;;;;;-4.77;100.00;101623.39;109414;1251;60502;-56
2024/02/16 00:44:54;;;;;;;;;;;;;;;-4.77;100.00;101620.52;109490;1251;59864;-55
2024/02/16 00:47:23;;;;;;;;;;;;;;;-4.78;100.00;101617.65;109440;1251;73308;-55
2024/02/16 00:49:51;;;;;;;;;;;;;;;-4.77;100.00;101619.82;109502;1251;65727;-55
2024/02/16 00:52:18;;;;;;;;;;;;;;;-4.77;100.00;101621.17;109485;1251;70437;-55
2024/02/16 00:54:49;;;;;;;;;;;;;;;-4.78;100.00;101626.45;109462;1251;61918;-55
2024/02/16 00:57:16;;;;;;;;;;;;;;;-4.77;100.00;101620.34;109453;1251;59709;-58
2024/02/16 00:59:44;;;;;;;;;;;;;;;-4.76;100.00;101620.83;109492;1251;74288;-55
2024/02/16 01:02:11;;;;;;;;;;;;;;;-4.77;100.00;101622.70;109428;1253;66947;-55
2024/02/16 01:04:39;;;;;;;;;;;;;;;-4.75;100.00;101620.60;109359;1253;71373;-56
2024/02/16 01:07:07;;;;;;;;;;;;;;;-4.75;100.00;101619.91;109365;1251;61703;-62
2024/02/16 01:09:34;;;;;;;;;;;;;;;-4.74;100.00;101620.39;109401;1254;59809;-55
2024/02/16 01:12:02;;;;;;;;;;;;;;;-4.74;100.00;101621.24;109511;1250;75606;-54
2024/02/16 01:14:30;;;;;;;;;;;;;;;-4.75;100.00;101615.32;109468;1251;67143;-56
2024/02/16 01:16:57;;;;;;;;;;;;;;;-4.74;100.00;101618.38;109408;1253;72753;-54
2024/02/16 01:19:25;;;;;;;;;;;;;;;-4.73;100.00;101625.13;109387;1251;61901;-60
2024/02/16 01:21:57;;;;;;;;;;;;;;;-4.73;100.00;101624.61;109432;1252;60093;-55
2024/02/16 01:24:24;;;;;;;;;;;;;;;-4.73;100.00;101625.61;109461;1252;75497;-55
2024/02/16 01:26:52;;;;;;;;;;;;;;;-4.72;100.00;101626.10;109459;1254;66995;-56
2024/02/16 01:29:20;;;;;;;;;;;;;;;-4.71;100.00;101619.96;109459;1251;73112;-55
2024/02/16 01:31:47;;;;;;;;;;;;;;;-4.71;100.00;101624.87;109433;1253;60760;-55
2024/02/16 01:34:15;;;;;;;;;;;;;;;-4.70;100.00;101624.16;109478;1251;59846;-55
2024/02/16 01:36:43;;;;;;;;;;;;;;;-4.68;100.00;101628.68;109434;1251;74175;-56
2024/02/16 01:39:10;;;;;;;;;;;;;;;-4.70;100.00;101623.83;109503;1251;66968;-55
2024/02/16 01:41:38;;;;;;;;;;;;;;;-4.70;100.00;101625.52;109443;1251;71599;-59
2024/02/16 01:44:06;;;;;;;;;;;;;;;-4.71;100.00;101629.96;109437;1251;62217;-55
2024/02/16 01:46:33;;;;;;;;;;;;;;;-4.70;100.00;101627.23;109453;1251;59733;-54
2024/02/16 01:49:01;;;;;;;;;;;;;;;-4.69;100.00;101630.60;109495;1251;75645;-55
2024/02/16 01:51:29;;;;;;;;;;;;;;;-4.69;100.00;101630.23;109494;1251;67276;-62
2024/02/16 01:53:56;;;;;;;;;;;;;;;-4.69;100.00;101631.41;109416;1253;73241;-55
2024/02/16 01:56:26;;;;;;;;;;;;;;;-4.68;100.00;101637.66;109279;1251;60564;-54
2024/02/16 01:58:54;;;;;;;;;;;;;;;-4.67;100.00;101642.23;109475;1256;60227;-55
2024/02/16 02:01:22;;;;;;;;;;;;;;;-4.67;100.00;101645.43;109307;1251;74244;-55
2024/02/16 02:03:51;;;;;;;;;;;;;;;-4.66;100.00;101644.54;109413;1256;64975;-56
2024/02/16 02:06:18;;;;;;;;;;;;;;;-4.67;100.00;101647.45;109454;1253;72717;-56
2024/02/16 02:08:46;;;;;;;;;;;;;;;-4.67;100.00;101646.25;109415;1251;60537;-55
2024/02/16 02:11:13;;;;;;;;;;;;;;;-4.64;100.00;101652.98;109462;1251;60173;-55
2024/02/16 02:13:41;;;;;;;;;;;;;;;-4.62;100.00;101645.62;109442;1251;75644;-61
2024/02/16 02:16:09;;;;;;;;;;;;;;;-4.60;100.00;101650.63;109465;1251;65136;-55
2024/02/16 02:18:37;;;;;;;;;;;;;;;-4.58;100.00;101649.73;109470;1251;71500;-55
2024/02/16 02:21:04;;;;;;;;;;;;;;;-4.59;100.00;101653.13;109420;1252;60494;-56
2024/02/16 02:23:33;;;;;;;;;;;;;;;-4.58;100.00;101652.27;109432;1251;59898;-62
2024/02/16 02:26:01;;;;;;;;;;;;;;;-4.59;100.00;101655.17;109450;1251;74278;-55
2024/02/16 02:28:29;;;;;;;;;;;;;;;-4.59;100.00;101654.16;109416;1253;66967;-55
2024/02/16 02:30:56;;;;;;;;;;;;;;;-4.58;100.00;101649.39;109402;1253;72706;-56
2024/02/16 02:33:24;;;;;;;;;;;;;;;-4.58;100.00;101657.52;109383;1251;60291;-55
2024/02/16 02:35:52;;;;;;;;;;;;;;;-4.59;100.00;101660.96;109460;1251;59775;-54
2024/02/16 02:38:19;;;;;;;;;;;;;;;-4.61;100.00;101656.10;109472;1251;75512;-56
2024/02/16 02:40:47;;;;;;;;;;;;;;;-4.65;100.00;101660.45;109457;1251;67002;-55
2024/02/16 02:43:15;;;;;;;;;;;;;;;-4.64;100.00;101661.97;109440;1251;72699;-55
2024/02/16 02:45:43;;;;;;;;;;;;;;;-4.66;100.00;101658.80;109364;1251;60429;-55
2024/02/16 02:48:10;;;;;;;;;;;;;;;-4.68;100.00;101652.77;109449;1251;59921;-56
2024/02/16 02:50:38;;;;;;;;;;;;;;;-4.67;100.00;101648.14;109465;1251;74311;-55
2024/02/16 02:53:05;;;;;;;;;;;;;;;-4.67;100.00;101651.02;109412;1256;65658;-55
2024/02/16 02:55:33;;;;;;;;;;;;;;;-4.69;100.00;101648.38;109387;1251;72723;-57
2024/02/16 02:58:00;;;;;;;;;;;;;;;-4.68;100.00;101653.60;109393;1253;60101;-54
2024/02/16 03:00:28;;;;;;;;;;;;;;;-4.68;100.00;101656.66;109447;1251;59877;-55
2024/02/16 03:02:56;;;;;;;;;;;;;;;-4.68;100.00;101659.88;109386;1251;74486;-56
2024/02/16 03:05:24;;;;;;;;;;;;;;;-4.68;100.00;101660.23;109391;1251;65644;-61
2024/02/16 03:07:51;;;;;;;;;;;;;;;-4.68;100.00;101668.00;109433;1251;71660;-54
2024/02/16 03:10:21;;;;;;;;;;;;;;;-4.69;100.00;101670.27;109396;1251;60892;-55
2024/02/16 03:12:49;;;;;;;;;;;;;;;-4.71;100.00;101668.28;109461;1251;59753;-55
2024/02/16 03:15:17;;;;;;;;;;;;;;;-4.71;100.00;101667.42;109450;1251;74264;-61
2024/02/16 03:17:45;;;;;;;;;;;;;;;-4.70;100.00;101667.25;109387;1251;67074;-55
2024/02/16 03:20:13;;;;;;;;;;;;;;;-4.70;100.00;101671.30;109410;1256;72777;-54
2024/02/16 03:22:40;;;;;;;;;;;;;;;-4.73;100.00;101665.98;109447;1251;62151;-55
2024/02/16 03:25:08;;;;;;;;;;;;;;;-4.74;100.00;101670.41;109437;1251;60284;-55
2024/02/16 03:27:37;;;;;;;;;;;;;;;-4.71;100.00;101672.02;109430;1251;74318;-55
2024/02/16 03:30:05;;;;;;;;;;;;;;;-4.70;100.00;101679.45;109380;1251;65839;-55
2024/02/16 03:32:32;;;;;;;;;;;;;;;-4.71;100.00;101681.51;109394;1251;72723;-55
2024/02/16 03:35:00;;;;;;;;;;;;;;;-4.70;100.00;101674.36;109485;1251;60831;-54
2024/02/16 03:37:27;;;;;;;;;;;;;;;-4.70;100.00;101678.77;109464;1251;59776;-55
2024/02/16 03:39:55;;;;;;;;;;;;;;;-4.70;100.00;101677.25;109425;1251;75450;-61
2024/02/16 03:42:22;;;;;;;;;;;;;;;-4.72;100.00;101674.61;109445;1251;65859;-55
2024/02/16 03:44:50;;;;;;;;;;;;;;;-4.76;100.00;101668.45;109385;1251;71450;-54
2024/02/16 03:47:18;;;;;;;;;;;;;;;-4.77;100.00;101672.21;109416;1251;60469;-55
2024/02/16 03:49:46;;;;;;;;;;;;;;;-4.78;100.00;101676.48;109438;1253;59742;-61
2024/02/16 03:52:14;;;;;;;;;;;;;;;-4.79;100.00;101673.11;109368;1251;76338;-55
2024/02/16 03:54:43;;;;;;;;;;;;;;;-4.80;100.00;101674.71;109466;1251;65851;-55
2024/02/16 03:57:12;;;;;;;;;;;;;;;-4.83;100.00;101673.42;109400;1252;71465;-54
2024/02/16 03:59:39;;;;;;;;;;;;;;;-4.83;100.00;101672.60;109426;1251;61747;-55
2024/02/16 04:02:07;;;;;;;;;;;;;;;-4.84;100.00;101671.45;109386;1251;59726;-59
2024/02/16 04:04:35;;;;;;;;;;;;;;;-4.85;100.00;101673.84;109415;1251;75394;-55
2024/02/16 04:07:02;;;;;;;;;;;;;;;-4.85;100.00;101674.69;109439;1251;65653;-55
2024/02/16 04:09:30;;;;;;;;;;;;;;;-4.84;100.00;101679.91;109385;1251;71428;-55
2024/02/16 04:11:58;;;;;;;;;;;;;;;-4.85;100.00;101679.42;109372;1251;61775;-62
2024/02/16 04:14:25;;;;;;;;;;;;;;;-4.89;100.00;101680.24;109419;1251;59743;-54
2024/02/16 04:16:52;;;;;;;;;;;;;;;-4.95;100.00;101681.44;109426;1251;74298;-56
2024/02/16 04:19:20;;;;;;;;;;;;;;;-5.01;100.00;101685.02;109467;1251;65688;-55
2024/02/16 04:21:48;;;;;;;;;;;;;;;-5.03;100.00;101683.23;109417;1251;72725;-62
2024/02/16 04:24:15;;;;;;;;;;;;;;;-5.05;100.00;101686.02;109394;1251;60169;-55
2024/02/16 04:26:43;;;;;;;;;;;;;;;-5.06;100.00;101686.55;109471;1251;59742;-55
2024/02/16 04:29:11;;;;;;;;;;;;;;;-5.06;100.00;101691.96;109434;1250;75619;-55
2024/02/16 04:31:42;;;;;;;;;;;;;;;-5.03;100.00;101691.86;109458;1251;67305;-55
2024/02/16 04:34:09;;;;;;;;;;;;;;;-5.02;100.00;101696.75;109386;1251;73024;-55
2024/02/16 04:36:37;;;;;;;;;;;;;;;-5.02;100.00;101696.10;109455;1251;59783;-55
2024/02/16 04:39:04;;;;;;;;;;;;;;;-5.02;100.00;101703.88;109426;1251;59733;-55
2024/02/16 04:41:32;;;;;;;;;;;;;;;-5.02;100.00;101710.17;109437;1251;75509;-55
2024/02/16 04:43:59;;;;;;;;;;;;;;;-5.05;100.00;101706.00;109437;1251;66914;-60
2024/02/16 04:46:27;;;;;;;;;;;;;;;-5.07;100.00;101708.77;109456;1251;72788;-54
2024/02/16 04:48:55;;;;;;;;;;;;;;;-5.08;100.00;101712.55;109495;1253;60290;-55
2024/02/16 04:51:22;;;;;;;;;;;;;;;-5.09;100.00;101710.70;109466;1251;59702;-55
2024/02/16 04:53:50;;;;;;;;;;;;;;;-5.09;100.00;101709.02;109486;1251;74246;-54
2024/02/16 04:56:17;;;;;;;;;;;;;;;-5.11;100.00;101709.75;109381;1251;65841;-55
2024/02/16 04:58:45;;;;;;;;;;;;;;;-5.10;100.00;101708.89;109392;1251;71443;-56
2024/02/16 05:01:13;;;;;;;;;;;;;;;-5.07;100.00;101713.70;109438;1251;60589;-55
2024/02/16 05:03:41;;;;;;;;;;;;;;;-5.03;100.00;101712.40;109465;1251;61032;-55
2024/02/16 05:06:09;;;;;;;;;;;;;;;-5.03;100.00;101710.20;109439;1251;75529;-56
2024/02/16 05:08:36;;;;;;;;;;;;;;;-5.03;100.00;101718.84;109402;1251;67595;-55
2024/02/16 05:11:04;;;;;;;;;;;;;;;-5.02;100.00;101720.49;109421;1251;71590;-55
2024/02/16 05:13:31;;;;;;;;;;;;;;;-5.02;100.00;101725.40;109427;1251;60240;-55
2024/02/16 05:15:59;;;;;;;;;;;;;;;-5.04;100.00;101729.20;109475;1251;60195;-54
2024/02/16 05:18:27;;;;;;;;;;;;;;;-5.07;100.00;101728.79;109500;1250;75544;-55
2024/02/16 05:20:55;;;;;;;;;;;;;;;-5.09;100.00;101727.83;109403;1251;66904;-55
2024/02/16 05:23:23;;;;;;;;;;;;;;;-5.09;100.00;101727.33;109425;1251;71555;-54
2024/02/16 05:25:50;;;;;;;;;;;;;;;-5.12;100.00;101727.91;109423;1251;60142;-54
2024/02/16 05:28:18;;;;;;;;;;;;;;;-5.11;100.00;101731.45;109412;1251;59727;-56
2024/02/16 05:30:45;;;;;;;;;;;;;;;-5.08;100.00;101735.25;109372;1251;75824;-60
2024/02/16 05:33:13;;;;;;;;;;;;;;;-5.06;100.00;101736.90;109454;1251;66405;-53
2024/02/16 05:35:44;;;;;;;;;;;;;;;-5.05;100.00;101732.44;109453;1251;73792;-53
2024/02/16 05:38:34;;;;;;;;;;;;;;;-5.04;100.00;101734.13;109401;1251;59710;-53
2024/02/16 05:41:19;;;;;;;;;;;;;;;-5.04;100.00;101732.77;109433;1251;60170;-53
2024/02/16 05:44:04;;;;;;;;;;;;;;;-5.07;100.00;101732.02;109411;1251;76313;-55
2024/02/16 05:46:32;;;;;;;;;;;;;;;-5.10;100.00;101736.31;109456;1251;66949;-55
2024/02/16 05:49:02;;;;;;;;;;;;;;;-5.10;100.00;101733.77;109414;1251;72718;-54
2024/02/16 05:51:37;;;;;;;;;;;;;;;-5.08;100.00;101737.98;109472;1253;59834;-61
2024/02/16 05:54:04;;;;;;;;;;;;;;;-5.04;100.00;101742.10;109440;1251;59726;-54
2024/02/16 05:56:33;;;;;;;;;;;;;;;-5.03;100.00;101750.87;109415;1251;75553;-56
2024/02/16 05:59:00;;;;;;;;;;;;;;;-5.03;100.00;101748.84;109483;1250;65069;-54
2024/02/16 06:01:31;;;;;;;;;;;;;;;-5.02;100.00;101750.86;109417;1251;72704;-61
2024/02/16 06:03:59;;;;;;;;;;;;;;;-5.02;100.00;101744.56;109396;1251;62560;-54
2024/02/16 06:06:26;;;;;;;;;;;;;;;-5.03;100.00;101739.84;109494;1251;60849;-55
2024/02/16 06:08:54;;;;;;;;;;;;;;;-5.01;100.00;101747.41;109504;1251;74174;-54
2024/02/16 06:11:21;;;;;;;;;;;;;;;-5.00;100.00;101750.94;109457;1251;67129;-62
2024/02/16 06:13:49;;;;;;;;;;;;;;;-5.03;100.00;101750.70;109411;1253;72724;-54
2024/02/16 06:16:17;;;;;;;;;;;;;;;-5.03;100.00;101751.71;109374;1251;61728;-54
2024/02/16 06:18:44;;;;;;;;;;;;;;;-5.05;100.00;101755.68;109438;1251;59850;-54
2024/02/16 06:21:13;;;;;;;;;;;;;;;-5.07;100.00;101746.42;109423;1250;74238;-54
2024/02/16 06:23:40;;;;;;;;;;;;;;;-5.05;100.00;101748.23;109364;1251;66857;-55
2024/02/16 06:26:08;;;;;;;;;;;;;;;-5.02;100.00;101748.95;109391;1251;72738;-54
2024/02/16 06:28:36;;;;;;;;;;;;;;;-4.97;100.00;101742.70;109392;1251;60533;-55
2024/02/16 06:31:04;;;;;;;;;;;;;;;-4.93;100.00;101742.41;109438;1251;60034;-55
2024/02/16 06:33:31;;;;;;;;;;;;;;;-4.85;100.00;101745.55;109301;1251;75542;-60
2024/02/16 06:35:59;;;;;;;;;;;;;;;-4.81;100.00;101747.30;109394;1251;69332;-55
2024/02/16 06:38:27;;;;;;;;;;;;;;;-4.80;100.00;101751.53;109383;1252;74576;-54
2024/02/16 06:40:54;;;;;;;;;;;;;;;-4.82;100.00;101760.41;109367;1251;64316;-54
2024/02/16 06:43:22;;;;;;;;;;;;;;;-4.87;100.00;101740.69;109412;1251;59856;-54
2024/02/16 06:45:50;;;;;;;;;;;;;;;-4.91;100.00;101746.23;109345;1251;75121;-53
2024/02/16 06:48:17;;;;;;;;;;;;;;;-4.93;100.00;101748.18;109412;1251;66992;-56
2024/02/16 06:50:46;;;;;;;;;;;;;;;-4.92;100.00;101746.95;109353;1251;72788;-54
2024/02/16 06:53:14;;;;;;;;;;;;;;;-4.88;100.00;101758.21;109399;1251;59817;-54
2024/02/16 06:55:41;;;;;;;;;;;;;;;-4.85;100.00;101763.72;109413;1251;59823;-54
2024/02/16 06:58:09;;;;;;;;;;;;;;;-4.83;100.00;101770.77;109331;1251;76009;-54
2024/02/16 07:00:36;;;;;;;;;;;;;;;-4.79;100.00;101775.55;109397;1251;65704;-54
2024/02/16 07:03:04;;;;;;;;;;;;;;;-4.76;100.00;101774.46;109439;1252;71485;-54
2024/02/16 07:05:32;;;;;;;;;;;;;;;-4.77;100.00;101780.23;109428;1251;59749;-55
2024/02/16 07:08:06;;;;;;;;;;;;;;;-4.75;100.00;101779.67;109327;1251;59699;-55
2024/02/16 07:10:33;;;;;;;;;;;;;;;-4.70;100.00;101783.77;109374;1251;75610;-55
2024/02/16 07:13:01;;;;;;;;;;;;;;;-4.67;100.00;101778.73;109404;1251;65621;-55
2024/02/16 07:15:29;;;;;;;;;;;;;;;-4.66;100.00;101779.73;109413;1251;71442;-56
2024/02/16 07:17:57;;;;;;;;;;;;;;;-4.64;100.00;101778.33;109393;1251;60351;-58
2024/02/16 07:20:24;;;;;;;;;;;;;;;-4.59;100.00;101777.50;109351;1251;59668;-55
2024/02/16 07:22:52;;;;;;;;;;;;;;;-4.55;100.00;101781.92;109449;1250;75542;-54
2024/02/16 07:25:20;;;;;;;;;;;;;;;-4.54;100.00;101782.09;109387;1251;66123;-56
2024/02/16 07:27:47;;;;;;;;;;;;;;;-4.57;100.00;101776.75;109394;1251;71386;-54
2024/02/16 07:30:15;;;;;;;;;;;;;;;-4.60;100.00;101773.95;109383;1251;61725;-54
2024/02/16 07:32:53;;;;;;;;;;;;;;;-4.58;100.00;101770.84;109398;1251;59675;-55
2024/02/16 07:35:22;;;;;;;;;;;;;;;-4.53;100.00;101772.20;109424;1251;77825;-56
2024/02/16 07:37:53;;;;;;;;;;;;;;;-4.49;100.00;101773.96;109426;1251;67540;-54
2024/02/16 07:40:21;;;;;;;;;;;;;;;-4.46;100.00;101776.39;109367;1251;74739;-55
2024/02/16 07:42:48;;;;;;;;;;;;;;;-4.46;100.00;101777.90;109401;1251;63760;-55
2024/02/16 07:45:16;;;;;;;;;;;;;;;-4.41;100.00;101777.92;109412;1251;59888;-54
2024/02/16 07:47:44;;;;;;;;;;;;;;;-4.37;100.00;101778.30;109416;1251;75670;-54
2024/02/16 07:50:11;;;;;;;;;;;;;;;-4.41;100.00;101778.41;109360;1252;65702;-55
2024/02/16 07:52:39;;;;;;;;;;;;;;;-4.47;100.00;101772.86;109349;1251;71335;-57
2024/02/16 07:55:07;;;;;;;;;;;;;;;-4.49;100.00;101785.32;109364;1252;60386;-54
2024/02/16 07:57:35;;;;;;;;;;;;;;;-4.49;100.00;101770.05;109407;1251;60045;-54
2024/02/16 08:00:03;;;;;;;;;;;;;;;-4.49;100.00;101773.27;109396;1250;74352;-55
2024/02/16 08:02:31;;;;;;;;;;;;;;;-4.44;100.00;101780.39;109429;1251;68773;-56
2024/02/16 08:04:58;;;;;;;;;;;;;;;-4.37;100.00;101776.30;109379;1251;72710;-54
2024/02/16 08:07:27;;;;;;;;;;;;;;;-4.34;100.00;101778.55;109448;1251;60099;-54
2024/02/16 08:09:54;;;;;;;;;;;;;;;-4.28;100.00;101778.87;109456;1251;59847;-55
2024/02/16 08:12:22;;;;;;;;;;;;;;;-4.21;100.00;101784.73;109437;1251;76467;-57
2024/02/16 08:14:50;;;;;;;;;;;;;;;-4.12;100.00;101785.96;109424;1251;70241;-54
2024/02/16 08:17:17;;;;;;;;;;;;;;;-4.07;100.00;101789.23;109395;1251;71677;-54
2024/02/16 08:19:51;;;;;;;;;;;;;;;-4.05;100.00;101790.30;109387;1251;59704;-55
2024/02/16 08:22:18;;;;;;;;;;;;;;;-4.03;100.00;101789.89;109437;1251;59739;-61
2024/02/16 08:24:46;;;;;;;;;;;;;;;-4.04;100.00;101794.52;109425;1251;75957;-54
2024/02/16 08:27:15;;;;;;;;;;;;;;;-4.04;100.00;101792.00;109455;1251;67418;-55
2024/02/16 08:29:43;;;;;;;;;;;;;;;-4.04;100.00;101795.39;109430;1251;72824;-56
2024/02/16 08:32:10;;;;;;;;;;;;;;;-3.98;100.00;101791.27;109396;1251;60153;-54
2024/02/16 08:34:38;;;;;;;;;;;;;;;-3.83;100.00;101790.25;109375;1251;62478;-54
2024/02/16 08:37:06;;;;;;;;;;;;;;;-3.75;100.00;101791.00;109456;1251;73629;-55
2024/02/16 08:39:34;;;;;;;;;;;;;;;-3.71;100.00;101786.60;109385;1251;67497;-54
2024/02/16 08:42:03;;;;;;;;;;;;;;;-3.65;100.00;101787.05;109381;1251;71454;-54
2024/02/16 08:44:30;;;;;;;;;;;;;;;-3.61;100.00;101793.41;109288;1253;59738;-60
2024/02/16 08:46:58;;;;;;;;;;;;;;;-3.64;100.00;101789.77;109414;1251;59898;-53
2024/02/16 08:49:25;;;;;;;;;;;;;;;-3.67;100.00;101793.77;109400;1253;76490;-54
2024/02/16 08:51:53;;;;;;;;;;;;;;;-3.72;100.00;101793.59;109420;1250;66342;-54
2024/02/16 08:54:21;;;;;;;;;;;;;;;-3.70;100.00;101786.73;109382;1251;73083;-54
2024/02/16 08:56:48;;;;;;;;;;;;;;;-3.68;100.00;101787.34;109360;1252;60275;-56
2024/02/16 08:59:16;;;;;;;;;;;;;;;-3.64;100.00;101773.98;109357;1251;60415;-54
2024/02/16 09:01:43;;;;;;;;;;;;;;;-3.54;100.00;101773.11;109412;1251;76250;-54
2024/02/16 09:04:11;;;;;;;;;;;;;;;-3.50;100.00;101769.54;109400;1253;68919;-56
2024/02/16 09:06:38;;;;;;;;;;;;;;;-3.47;100.00;101767.73;109373;1251;73187;-55
2024/02/16 09:09:10;;;;;;;;;;;;;;;-3.42;100.00;101764.33;109302;1252;60043;-54
2024/02/16 09:11:38;;;;;;;;;;;;;;;-3.38;100.00;101758.55;109318;1252;62276;-55
2024/02/16 09:14:05;;;;;;;;;;;;;;;-3.33;100.00;101755.64;109375;1250;75567;-54
2024/02/16 09:16:33;;;;;;;;;;;;;;;-3.26;100.00;101755.73;109386;1252;70560;-54
2024/02/16 09:19:01;;;;;;;;;;;;;;;-3.25;100.00;101752.13;109327;1252;74632;-54
2024/02/16 09:21:29;;;;;;;;;;;;;;;-3.32;100.00;101746.98;109254;1251;61065;-53
2024/02/16 09:24:01;;;;;;;;;;;;;;;-3.37;100.00;101743.92;109346;1253;59999;-55
2024/02/16 09:26:33;;;;;;;;;;;;;;;-3.37;100.00;101745.10;109312;1252;76861;-62
2024/02/16 09:29:01;;;;;;;;;;;;;;;-3.37;100.00;101742.39;109435;1252;65822;-55
2024/02/16 09:31:29;;;;;;;;;;;;;;;-3.32;100.00;101738.12;109447;1252;74661;-54
2024/02/16 09:33:56;;;;;;;;;;;;;;;-3.29;100.00;101745.31;109315;1252;59792;-54
2024/02/16 09:36:24;;;;;;;;;;;;;;;-3.28;100.00;101751.73;109350;1252;62694;-54
2024/02/16 09:38:53;;;;;;;;;;;;;;;-3.25;100.00;101744.46;109327;1252;76650;-54
2024/02/16 09:41:20;;;;;;;;;;;;;;;-3.18;100.00;101751.39;109344;1251;70552;-54
2024/02/16 09:43:53;;;;;;;;;;;;;;;-3.16;100.00;101753.85;109337;1252;76154;-56
2024/02/16 09:46:21;;;;;;;;;;;;;;;-3.19;100.00;101748.86;109289;1253;61062;-54
2024/02/16 09:48:52;;;;;;;;;;;;;;;-3.20;100.00;101748.55;109289;1252;60225;-61
2024/02/16 09:51:20;;;;;;;;;;;;;;;-3.13;100.00;101743.52;109339;1252;77185;-53
2024/02/16 09:53:52;;;;;;;;;;;;;;;-3.05;100.00;101750.36;109381;1251;69313;-53
2024/02/16 09:56:24;;;;;;;;;;;;;;;-3.06;100.00;101748.88;109354;1252;73745;-54
2024/02/16 09:58:52;;;;;;;;;;;;;;;-3.08;100.00;101752.02;109292;1254;61514;-55
2024/02/16 10:01:20;;;;;;;;;;;;;;;-3.04;100.00;101745.58;109359;1252;61988;-54
2024/02/16 10:03:49;;;;;;;;;;;;;;;-3.08;100.00;101748.78;109375;1252;77456;-54
2024/02/16 10:06:16;;;;;;;;;;;;;;;-3.10;100.00;101740.02;109305;1253;67850;-54
2024/02/16 10:08:49;;;;;;;;;;;;;;;-3.03;100.00;101746.54;109272;1254;74775;-54
2024/02/16 10:11:18;;;;;;;;;;;;;;;-2.96;100.00;101742.35;109300;1252;61220;-55
2024/02/16 10:13:59;;;;;;;;;;;;;;;-2.96;100.00;101747.95;109313;1252;60927;-55
2024/02/16 10:16:30;;;;;;;;;;;;;;;-2.94;100.00;101750.45;109288;1252;76409;-55
2024/02/16 10:19:07;;;;;;;;;;;;;;;-2.92;100.00;101746.27;109354;1253;67464;-55
2024/02/16 10:21:35;;;;;;;;;;;;;;;-2.91;100.00;101744.02;109271;1252;74753;-54
2024/02/16 10:24:07;;;;;;;;;;;;;;;-2.92;100.00;101743.89;109263;1252;63815;-55
2024/02/16 10:26:38;;;;;;;;;;;;;;;-2.94;100.00;101735.63;109311;1252;61883;-54
2024/02/16 10:29:10;;;;;;;;;;;;;;;-2.92;100.00;101737.28;109313;1252;76328;-54
2024/02/16 10:31:38;;;;;;;;;;;;;;;-2.90;100.00;101731.07;109360;1252;69315;-54
2024/02/16 10:34:06;;;;;;;;;;;;;;;-2.87;100.00;101733.17;109275;1253;72417;-55
2024/02/16 10:36:35;;;;;;;;;;;;;;;-2.86;100.00;101735.86;109314;1252;61516;-54
2024/02/16 10:39:08;;;;;;;;;;;;;;;-2.83;100.00;101730.12;109337;1252;61835;-54
2024/02/16 10:41:36;;;;;;;;;;;;;;;-2.77;100.00;101729.17;109333;1251;76464;-55
2024/02/16 10:44:05;;;;;;;;;;;;;;;-2.73;100.00;101723.23;109323;1253;69883;-55
2024/02/16 10:46:33;;;;;;;;;;;;;;;-2.74;100.00;101718.34;109348;1253;74577;-54
2024/02/16 10:49:05;;;;;;;;;;;;;;;-2.68;100.00;101720.85;109302;1253;61347;-54
2024/02/16 10:51:34;;;;;;;;;;;;;;;-2.62;100.00;101724.54;109280;1253;61815;-55
2024/02/16 10:54:02;;;;;;;;;;;;;;;-2.65;100.00;101716.83;109293;1252;77157;-60
2024/02/16 10:56:33;;;;;;;;;;;;;;;-2.67;100.00;101723.04;109273;1252;69042;-53
2024/02/16 10:59:04;;;;;;;;;;;;;;;-2.60;100.00;101718.81;109346;1252;71365;-53
2024/02/16 11:01:32;;;;;;;;;;;;;;;-2.56;100.00;101718.31;109428;1252;60272;-54
2024/02/16 11:04:02;;;;;;;;;;;;;;;-2.52;100.00;101713.02;109294;1253;62362;-62
2024/02/16 11:06:30;;;;;;;;;;;;;;;-2.40;100.00;101719.00;109315;1252;79231;-55
2024/02/16 11:09:07;;;;;;;;;;;;;;;-2.28;100.00;101710.15;109366;1252;67014;-55
2024/02/16 11:11:36;;;;;;;;;;;;;;;-2.24;100.00;101710.67;109312;1252;73560;-62
2024/02/16 11:14:04;;;;;;;;;;;;;;;-2.28;100.00;101712.86;109311;1252;60207;-55
2024/02/16 11:16:31;;;;;;;;;;;;;;;-2.32;100.00;101705.38;109262;1251;61110;-56
2024/02/16 11:19:03;;;;;;;;;;;;;;;-2.36;100.00;101707.95;109412;1251;78320;-56
2024/02/16 11:21:30;;;;;;;;;;;;;;;-2.35;100.00;101708.77;109344;1252;67916;-62
2024/02/16 11:24:03;;;;;;;;;;;;;;;-2.36;100.00;101703.17;109009;1251;417781;-55
2024/02/16 11:26:31;;;;;;;;;;;;;;;-2.31;100.00;101700.77;109364;1252;61427;-55
2024/02/16 11:28:59;;;;;;;;;;;;;;;-2.29;100.00;101697.27;109349;1252;61919;-55
2024/02/16 11:31:26;;;;;;;;;;;;;;;-2.26;100.00;101701.01;109345;1252;76467;-55
2024/02/16 11:33:54;;;;;;;;;;;;;;;-2.25;100.00;101697.09;109349;1253;66324;-54
2024/02/16 11:36:24;;;;;;;;;;;;;;;-2.28;100.00;101698.21;109377;1252;75049;-55
2024/02/16 11:38:51;;;;;;;;;;;;;;;-2.28;100.00;101701.13;109434;1252;60999;-55
2024/02/16 11:41:22;;;;;;;;;;;;;;;-2.30;100.00;101697.48;109398;1252;62273;-55
2024/02/16 11:43:50;;;;;;;;;;;;;;;-2.35;100.00;101694.80;109298;1252;76295;-56
2024/02/16 11:46:18;;;;;;;;;;;;;;;-2.40;100.00;101692.27;109413;1252;68863;-55
2024/02/16 11:48:47;;;;;;;;;;;;;;;-2.41;100.00;101694.02;109434;1252;75512;-55
2024/02/16 11:51:17;;;;;;;;;;;;;;;-2.43;100.00;101696.69;109383;1252;62518;-55
2024/02/16 11:53:45;;;;;;;;;;;;;;;-2.42;100.00;101696.27;109378;1252;61167;-58
2024/02/16 11:56:21;;;;;;;;;;;;;;;-2.37;100.00;101695.91;109227;1252;78760;-55
2024/02/16 11:58:49;;;;;;;;;;;;;;;-2.40;100.00;101702.32;109457;1252;69590;-56
2024/02/16 12:01:17;;;;;;;;;;;;;;;-2.47;100.00;101695.98;109332;1252;73330;-55
2024/02/16 12:03:46;;;;;;;;;;;;;;;-2.51;100.00;101693.92;109376;1253;60970;-62
2024/02/16 12:06:20;;;;;;;;;;;;;;;-2.54;100.00;101695.92;109395;1251;61214;-55
2024/02/16 12:08:49;;;;;;;;;;;;;;;-2.57;100.00;101697.91;109433;1252;76250;-56
2024/02/16 12:11:16;;;;;;;;;;;;;;;-2.65;100.00;101696.20;109489;1252;68457;-56
2024/02/16 12:13:44;;;;;;;;;;;;;;;-2.74;100.00;101689.61;109289;1253;73740;-56
2024/02/16 12:16:12;;;;;;;;;;;;;;;-2.76;100.00;101679.98;109363;1254;61168;-55
2024/02/16 12:18:39;;;;;;;;;;;;;;;-2.75;100.00;101682.34;109481;1252;60676;-55
2024/02/16 12:21:09;;;;;;;;;;;;;;;-2.77;100.00;101676.77;109325;1252;77867;-55
2024/02/16 12:23:37;;;;;;;;;;;;;;;-2.78;100.00;101680.73;109417;1252;69981;-55
2024/02/16 12:26:04;;;;;;;;;;;;;;;-2.79;100.00;101674.47;109457;1252;75040;-55
2024/02/16 12:28:32;;;;;;;;;;;;;;;-2.76;100.00;101677.77;109427;1253;61025;-54
2024/02/16 12:31:00;;;;;;;;;;;;;;;-2.73;100.00;101686.16;109499;1252;62077;-55